Flight Track Log - Related Links

Times and Time Zones

All times are in EDT time to prevent confusion due to time zone crossing. See the DAL1735 flight status page for this flight to view local times or setup timezone preferences in your user account.

Time Position Orientation Groundspeed Altitude Reporting Facility
EDT Latitude Longitude Course Direction KTS MPH feet Rate Location/Type
Wed 07:10:43 PM 33.9350 -118.4200 263° West 166 191 1,200  Level FlightAware ADS-B
Wed 07:11:13 PM 33.9320 -118.4490 263° West 202 232 2,000 1,756 Climbing FlightAware ADS-B
Wed 07:11:24 PM 33.9310 -118.4620 265° West 212 244 2,400 1,733 Climbing FlightAware ADS-B
Wed 07:11:58 PM 33.9270 -118.5070 264° West 250 288 3,300 2,034 Climbing FlightAware ADS-B
Wed 07:12:23 PM 33.9230 -118.5400 262° West 260 299 4,400 2,235 Climbing FlightAware ADS-B
Wed 07:12:49 PM 33.9210 -118.5630 264° West 259 298 5,200 2,100 Climbing FlightAware ADS-B
Wed 07:13:03 PM 33.9180 -118.5920 263° West 269 310 5,800 2,694 Climbing FlightAware ADS-B
Wed 07:13:38 PM 33.9120 -118.6460 262° West 274 315 7,400 3,097 Climbing FlightAware ADS-B
Wed 07:14:05 PM 33.9070 -118.7060 264° West 283 326 9,000 2,830 Climbing FlightAware ADS-B
Wed 07:14:31 PM 33.9030 -118.7440 263° West 290 334 9,900 1,575 Climbing FlightAware ADS-B
Wed 07:15:25 PM 33.9060 -118.8420 272° West 345 397 11,100 1,405 Climbing FlightAware ADS-B
Wed 07:16:22 PM 33.9380 -118.9510 290° West 381 438 12,500 1,776 Climbing FlightAware ADS-B
Wed 07:17:03 PM 33.9630 -119.0350 290° West 391 450 14,000 2,024 Climbing FlightAware ADS-B
Wed 07:17:45 PM 33.9890 -119.1230 290° West 401 461 15,300 1,814 Climbing FlightAware ADS-B
Wed 07:18:29 PM 34.0170 -119.2170 290° West 414 476 16,600 1,610 Climbing FlightAware ADS-B
Wed 07:19:07 PM 34.0410 -119.3010 289° West 426 490 17,500 1,571 Climbing FlightAware ADS-B
Wed 07:19:53 PM 34.0730 -119.4060 290° West 434 499 18,800 1,442 Climbing FlightAware ADS-B
Wed 07:20:51 PM 34.1010 -119.5000 290° West 439 505 20,000 720 Climbing FlightAware ADS-B
Wed 07:21:33 PM 34.1280 -119.5840 291° West 440 506 20,000  Level FlightAware ADS-B
Wed 07:22:09 PM 34.1500 -119.6550 291° West 440 506 20,000  Level FlightAware ADS-B
Wed 07:22:34 PM 34.1660 -119.7030 292° West 440 506 20,000 3,500 Level FlightAware ADS-B
Wed 07:23:21 PM 34.2160 -119.8930 288° West 451 519 24,200 2,965 Climbing FlightAware ADS-B
Wed 07:23:59 PM 34.2190 -119.9740 273° West 451 519 24,200 1,348 Level FlightAware ADS-B
Wed 07:24:50 PM 34.2230 -120.1170 272° West 462 532 26,200 1,370 Climbing FlightAware ADS-B
Wed 07:25:31 PM 34.2260 -120.2110 272° West 463 533 26,300 1,229 Climbing FlightAware ADS-B
Wed 07:26:13 PM 34.2280 -120.3330 271° West 464 534 27,900 1,375 Climbing FlightAware ADS-B
Wed 07:27:07 PM 34.2030 -120.4580 256° West 460 529 28,500 400 Climbing FlightAware ADS-B
Wed 07:27:43 PM 34.1860 -120.5340 255° West 460 529 28,500  Level FlightAware ADS-B
Wed 07:28:19 PM 34.1690 -120.6100 255° West 460 529 28,500  Level FlightAware ADS-B
Wed 07:29:08 PM 34.1460 -120.7130 255° West 460 529 28,500  Level FlightAware ADS-B
Wed 07:29:44 PM 34.1300 -120.7890 256° West 460 529 28,500  Level FlightAware ADS-B
Wed 07:30:20 PM 34.1130 -120.8650 255° West 460 529 28,500 2,598 Level FlightAware ADS-B
Wed 07:31:51 PM 33.9853 -121.1039 255° West 425 489 34,000 2,157 Climbing Los Angeles Center
Wed 07:32:53 PM 33.9406 -121.2353 248° West 423 487 34,000  Level Los Angeles Center
Wed 07:33:55 PM 33.8961 -121.3678 248° West 427 491 34,000  Level Los Angeles Center
Wed 07:34:57 PM 33.8628 -121.5072 254° West 435 501 34,000  Level Los Angeles Center
Wed 07:35:59 PM 33.8164 -121.6392 247° West 429 494 34,000  Level Los Angeles Center
Wed 07:37:02 PM 33.7600 -121.7964 247° West 425 489 34,000  Level Los Angeles Center
Wed 07:38:04 PM 33.7153 -121.9269 248° West 422 486 34,000  Level Los Angeles Center
Wed 07:39:06 PM 33.6689 -122.0586 247° West 426 490 34,000  Level Los Angeles Center
Wed 07:40:08 PM 33.6228 -122.1897 247° West 426 490 34,000  Level Los Angeles Center
Wed 07:41:10 PM 33.5764 -122.3225 247° West 430 495 34,000  Level Los Angeles Center
Wed 07:42:12 PM 33.5292 -122.4553 247° West 432 497 34,000  Level Los Angeles Center
Wed 07:43:14 PM 33.4742 -122.6142 247° West 430 495 34,000  Level Los Angeles Center
Wed 07:45:00 PM 33.4235 -122.8579 256° West  Level FlightAware Approximate
Wed 07:52:00 PM 33.2183 -123.8208 256° West  Level FlightAware Approximate
Wed 07:53:00 PM 33.1884 -123.9580 255° West  Level FlightAware Approximate
Wed 07:54:00 PM 33.1583 -124.0951 255° West  Level FlightAware Approximate
Wed 07:55:00 PM 33.1281 -124.2321 255° West  Level FlightAware Approximate
Wed 07:56:00 PM 33.0977 -124.3690 255° West  Level FlightAware Approximate
Wed 07:57:00 PM 33.0667 -124.5031 270° West  Level FlightAware Approximate
Wed 07:58:00 PM 33.0390 -124.6403 255° West  Level FlightAware Approximate
Wed 07:58:59 PM 33.0667 -124.5167 255° West 459 528 34,000  Level Oakland Oceanic (ODAPS)
Wed 07:59:00 PM 33.0083 -124.7769 255° West  Level FlightAware Approximate
Wed 08:00:00 PM 32.9775 -124.9135 255° West  Level FlightAware Approximate
Wed 08:01:00 PM 32.9465 -125.0500 255° West  Level FlightAware Approximate
Wed 08:02:00 PM 32.9152 -125.1867 255° West  Level FlightAware Approximate
Wed 08:03:00 PM 32.8838 -125.3233 255° West  Level FlightAware Approximate
Wed 08:04:00 PM 32.8523 -125.4599 255° West  Level FlightAware Approximate
Wed 08:05:00 PM 32.7653 -125.8329 254° West 459 528 34,000  Level FlightAware Transoceanic
Wed 08:06:00 PM 32.7309 -125.9786 254° West 459 528 34,000  Level FlightAware Transoceanic
Wed 08:07:00 PM 32.6964 -126.1242 254° West 459 528 34,000  Level FlightAware Transoceanic
Wed 08:08:00 PM 32.6618 -126.2696 254° West 459 528 34,000  Level FlightAware Transoceanic
Wed 08:09:00 PM 32.6269 -126.4150 254° West 459 528 34,000  Level FlightAware Transoceanic
Wed 08:10:00 PM 32.5919 -126.5602 254° West 459 528 34,000  Level FlightAware Transoceanic
Wed 08:11:00 PM 32.5567 -126.7054 254° West 459 528 34,000  Level FlightAware Transoceanic
Wed 08:12:00 PM 32.5214 -126.8504 254° West 459 528 34,000  Level FlightAware Transoceanic
Wed 08:13:00 PM 32.4859 -126.9953 254° West 459 528 34,000  Level FlightAware Transoceanic
Wed 08:14:00 PM 32.4502 -127.1401 254° West 459 528 34,000  Level FlightAware Transoceanic
Wed 08:15:00 PM 32.4144 -127.2847 254° West 459 528 34,000  Level FlightAware Transoceanic
Wed 08:16:00 PM 32.3784 -127.4293 254° West 459 528 34,000  Level FlightAware Transoceanic
Wed 08:17:00 PM 32.3422 -127.5737 253° West 459 528 34,000  Level FlightAware Transoceanic
Wed 08:18:00 PM 32.3059 -127.7180 253° West 459 528 34,000  Level FlightAware Transoceanic
Wed 08:19:00 PM 32.2694 -127.8622 253° West 459 528 34,000  Level FlightAware Transoceanic
Wed 08:20:00 PM 32.2327 -128.0063 253° West 459 528 34,000  Level FlightAware Transoceanic
Wed 08:21:00 PM 32.1959 -128.1503 253° West 459 528 34,000  Level FlightAware Transoceanic
Wed 08:22:00 PM 32.1589 -128.2941 253° West 459 528 34,000  Level FlightAware Transoceanic
Wed 08:23:00 PM 32.1218 -128.4379 253° West 459 528 34,000  Level FlightAware Transoceanic
Wed 08:24:00 PM 32.0844 -128.5815 253° West 459 528 34,000  Level FlightAware Transoceanic
Wed 08:25:00 PM 32.0470 -128.7250 253° West 459 528 34,000  Level FlightAware Transoceanic
Wed 08:26:00 PM 32.0093 -128.8684 253° West 459 528 34,000  Level FlightAware Transoceanic
Wed 08:27:00 PM 31.9715 -129.0117 253° West 459 528 34,000  Level FlightAware Transoceanic
Wed 08:28:00 PM 31.9336 -129.1548 253° West 459 528 34,000  Level FlightAware Transoceanic
Wed 08:29:00 PM 31.8955 -129.2979 253° West 459 528 34,000  Level FlightAware Transoceanic
Wed 08:30:00 PM 31.8572 -129.4408 252° West 459 528 34,000  Level FlightAware Transoceanic
Wed 08:31:00 PM 31.8188 -129.5836 252° West 459 528 34,000  Level FlightAware Transoceanic
Wed 08:32:00 PM 31.7802 -129.7263 252° West 459 528 34,000  Level FlightAware Transoceanic
Wed 08:33:00 PM 31.7414 -129.8688 252° West 459 528 34,000  Level FlightAware Transoceanic
Wed 08:34:00 PM 31.7025 -130.0112 252° West 459 528 34,000  Level FlightAware Transoceanic
Wed 08:35:00 PM 31.6634 -130.1536 252° West 459 528 34,000  Level FlightAware Transoceanic
Wed 08:36:00 PM 31.6242 -130.2958 252° West 459 528 34,000  Level FlightAware Transoceanic
Wed 08:37:00 PM 31.5848 -130.4378 252° West 459 528 34,000  Level FlightAware Transoceanic
Wed 08:38:00 PM 31.5452 -130.5798 252° West 459 528 34,000  Level FlightAware Transoceanic
Wed 08:39:00 PM 31.5056 -130.7216 252° West 459 528 34,000  Level FlightAware Transoceanic
Wed 08:40:00 PM 31.4657 -130.8634 252° West 459 528 34,000  Level FlightAware Transoceanic
Wed 08:41:00 PM 31.4257 -131.0049 252° West 459 528 34,000  Level FlightAware Transoceanic
Wed 08:42:00 PM 31.3855 -131.1464 252° West 459 528 34,000  Level FlightAware Transoceanic
Wed 08:43:00 PM 31.3452 -131.2878 251° West 459 528 34,000  Level FlightAware Transoceanic
Wed 08:44:00 PM 31.3047 -131.4290 251° West 459 528 34,000  Level FlightAware Transoceanic
Wed 08:45:00 PM 31.2641 -131.5701 251° West 459 528 34,000  Level FlightAware Transoceanic
Wed 08:46:00 PM 31.2233 -131.7111 251° West 459 528 34,000  Level FlightAware Transoceanic
Wed 08:47:00 PM 31.1823 -131.8520 251° West 459 528 34,000  Level FlightAware Transoceanic
Wed 08:48:00 PM 31.1413 -131.9927 251° West 459 528 34,000  Level FlightAware Transoceanic
Wed 08:49:00 PM 31.1000 -132.1333 251° West 459 528 34,000  Level FlightAware Transoceanic
Wed 08:50:00 PM 31.0593 -132.2717 251° West 459 528 34,000  Level FlightAware Transoceanic
Wed 08:51:00 PM 31.0184 -132.4099 251° West 459 528 34,000  Level FlightAware Transoceanic
Wed 08:51:50 PM 31.1000 -132.1333 251° West 451 519 34,000  Level Oakland Oceanic (ODAPS)
Wed 08:52:00 PM 30.9774 -132.5481 251° West 459 528 34,000  Level FlightAware Transoceanic
Wed 08:53:00 PM 30.9363 -132.6861 251° West 459 528 34,000  Level FlightAware Transoceanic
Wed 08:54:00 PM 30.8950 -132.8240 251° West 459 528 34,000  Level FlightAware Transoceanic
Wed 08:55:00 PM 30.8536 -132.9618 251° West 459 528 34,000  Level FlightAware Transoceanic
Wed 08:56:00 PM 30.8120 -133.0994 251° West 459 528 34,000  Level FlightAware Transoceanic
Wed 08:57:00 PM 30.7703 -133.2370 251° West 459 528 34,000  Level FlightAware Transoceanic
Wed 08:58:00 PM 30.7284 -133.3744 250° West 451 519 34,000  Level FlightAware Transoceanic
Wed 08:59:00 PM 30.6864 -133.5117 250° West 451 519 34,000  Level FlightAware Transoceanic
Wed 09:00:00 PM 30.6442 -133.6489 250° West 451 519 34,000  Level FlightAware Transoceanic
Wed 09:01:00 PM 30.6019 -133.7859 250° West 451 519 34,000  Level FlightAware Transoceanic
Wed 09:02:00 PM 30.5595 -133.9229 250° West 451 519 34,000  Level FlightAware Transoceanic
Wed 09:03:00 PM 30.5169 -134.0597 250° West 451 519 34,000  Level FlightAware Transoceanic
Wed 09:04:00 PM 30.4741 -134.1964 250° West 451 519 34,000  Level FlightAware Transoceanic
Wed 09:05:00 PM 30.4312 -134.3329 250° West 451 519 34,000  Level FlightAware Transoceanic
Wed 09:06:00 PM 30.3882 -134.4694 250° West 451 519 34,000  Level FlightAware Transoceanic
Wed 09:07:00 PM 30.3451 -134.6057 250° West 451 519 34,000  Level FlightAware Transoceanic
Wed 09:08:00 PM 30.3018 -134.7420 250° West 451 519 34,000  Level FlightAware Transoceanic
Wed 09:09:00 PM 30.2583 -134.8781 250° West 451 519 34,000  Level FlightAware Transoceanic
Wed 09:10:00 PM 30.2147 -135.0140 250° West 451 519 34,000  Level FlightAware Transoceanic
Wed 09:11:00 PM 30.1710 -135.1499 250° West 451 519 34,000  Level FlightAware Transoceanic
Wed 09:12:00 PM 30.1271 -135.2856 249° West 451 519 34,000  Level FlightAware Transoceanic
Wed 09:13:00 PM 30.0831 -135.4212 249° West 451 519 34,000  Level FlightAware Transoceanic
Wed 09:14:00 PM 30.0390 -135.5567 249° West 451 519 34,000  Level FlightAware Transoceanic
Wed 09:15:00 PM 29.9947 -135.6921 249° West 451 519 34,000  Level FlightAware Transoceanic
Wed 09:16:00 PM 29.9503 -135.8274 249° West 451 519 34,000  Level FlightAware Transoceanic
Wed 09:17:00 PM 29.9057 -135.9625 249° West 451 519 34,000  Level FlightAware Transoceanic
Wed 09:18:00 PM 29.8610 -136.0975 249° West 451 519 34,000  Level FlightAware Transoceanic
Wed 09:19:00 PM 29.8162 -136.2324 249° West 451 519 34,000  Level FlightAware Transoceanic
Wed 09:20:00 PM 29.7712 -136.3672 249° West 451 519 34,000  Level FlightAware Transoceanic
Wed 09:21:00 PM 29.7261 -136.5018 249° West 451 519 34,000  Level FlightAware Transoceanic
Wed 09:22:00 PM 29.6809 -136.6363 249° West 451 519 34,000  Level FlightAware Transoceanic
Wed 09:23:00 PM 29.6355 -136.7707 249° West 451 519 34,000  Level FlightAware Transoceanic
Wed 09:24:00 PM 29.5900 -136.9050 249° West 451 519 34,000  Level FlightAware Transoceanic
Wed 09:25:00 PM 29.5443 -137.0392 249° West 451 519 34,000  Level FlightAware Transoceanic
Wed 09:26:00 PM 29.4986 -137.1732 249° West 451 519 34,000  Level FlightAware Transoceanic
Wed 09:27:00 PM 29.4526 -137.3071 248° West 451 519 34,000  Level FlightAware Transoceanic
Wed 09:28:00 PM 29.4066 -137.4409 248° West 451 519 34,000  Level FlightAware Transoceanic
Wed 09:29:00 PM 29.3604 -137.5746 248° West 451 519 34,000  Level FlightAware Transoceanic
Wed 09:30:00 PM 29.3141 -137.7082 248° West 451 519 34,000  Level FlightAware Transoceanic
Wed 09:31:00 PM 29.2676 -137.8416 248° West 451 519 34,000  Level FlightAware Transoceanic
Wed 09:32:00 PM 29.2211 -137.9749 248° West 451 519 34,000  Level FlightAware Transoceanic
Wed 09:33:00 PM 29.1743 -138.1081 248° West 451 519 34,000  Level FlightAware Transoceanic
Wed 09:34:00 PM 29.1275 -138.2412 248° West 451 519 34,000  Level FlightAware Transoceanic
Wed 09:35:00 PM 29.0805 -138.3741 248° West 451 519 34,000  Level FlightAware Transoceanic
Wed 09:36:00 PM 29.0334 -138.5069 248° West 451 519 34,000  Level FlightAware Transoceanic
Wed 09:37:00 PM 28.9862 -138.6396 248° West 451 519 34,000  Level FlightAware Transoceanic
Wed 09:38:00 PM 28.9388 -138.7722 248° West 451 519 34,000  Level FlightAware Transoceanic
Wed 09:39:00 PM 28.8913 -138.9047 248° West 451 519 34,000  Level FlightAware Transoceanic
Wed 09:40:00 PM 28.8437 -139.0370 248° West 451 519 34,000  Level FlightAware Transoceanic
Wed 09:41:00 PM 28.7959 -139.1693 248° West 451 519 34,000  Level FlightAware Transoceanic
Wed 09:42:00 PM 28.7480 -139.3014 247° West 451 519 34,000  Level FlightAware Transoceanic
Wed 09:43:00 PM 28.7000 -139.4333 247° West 451 519 34,000  Level FlightAware Transoceanic
Wed 09:44:00 PM 28.6530 -139.5610 247° West 451 519 34,000  Level FlightAware Transoceanic
Wed 09:45:00 PM 28.6059 -139.6886 247° West 451 519 34,000  Level FlightAware Transoceanic
Wed 09:46:00 PM 28.5587 -139.8161 247° West 451 519 34,000  Level FlightAware Transoceanic
Wed 09:47:00 PM 28.5113 -139.9434 247° West 451 519 34,000  Level FlightAware Transoceanic
Wed 09:47:27 PM 28.7000 -139.4333 247° West 430 495 34,000  Level Oakland Oceanic (ODAPS)
Wed 09:48:00 PM 28.4639 -140.0707 247° West 451 519 34,000  Level FlightAware Transoceanic
Wed 09:49:00 PM 28.4163 -140.1978 247° West 451 519 34,000  Level FlightAware Transoceanic
Wed 09:50:00 PM 28.3686 -140.3248 247° West 451 519 34,000  Level FlightAware Transoceanic
Wed 09:51:00 PM 28.3208 -140.4517 247° West 451 519 34,000  Level FlightAware Transoceanic
Wed 09:52:00 PM 28.2729 -140.5785 247° West 451 519 34,000  Level FlightAware Transoceanic
Wed 09:53:00 PM 28.2807 -140.5577 247° West 430 495 34,000  Level FlightAware Transoceanic
Wed 09:54:00 PM 28.2335 -140.6821 247° West 430 495 34,000  Level FlightAware Transoceanic
Wed 09:55:00 PM 28.1863 -140.8064 247° West 430 495 34,000  Level FlightAware Transoceanic
Wed 09:56:00 PM 28.1389 -140.9306 247° West 430 495 34,000  Level FlightAware Transoceanic
Wed 09:57:00 PM 28.0914 -141.0546 247° West 430 495 34,000  Level FlightAware Transoceanic
Wed 09:58:00 PM 28.0438 -141.1786 246° West 430 495 34,000  Level FlightAware Transoceanic
Wed 09:59:00 PM 27.9961 -141.3024 246° West 430 495 34,000  Level FlightAware Transoceanic
Wed 10:00:00 PM 27.9483 -141.4261 246° West 430 495 34,000  Level FlightAware Transoceanic
Wed 10:01:00 PM 27.9003 -141.5497 246° West 430 495 34,000  Level FlightAware Transoceanic
Wed 10:02:00 PM 27.8523 -141.6732 246° West 430 495 34,000  Level FlightAware Transoceanic
Wed 10:03:00 PM 27.8041 -141.7966 246° West 430 495 34,000  Level FlightAware Transoceanic
Wed 10:04:00 PM 27.7559 -141.9199 246° West 430 495 34,000  Level FlightAware Transoceanic
Wed 10:05:00 PM 27.7075 -142.0431 246° West 430 495 34,000  Level FlightAware Transoceanic
Wed 10:06:00 PM 27.6590 -142.1662 246° West 430 495 34,000  Level FlightAware Transoceanic
Wed 10:07:00 PM 27.6104 -142.2891 246° West 430 495 34,000  Level FlightAware Transoceanic
Wed 10:08:00 PM 27.5617 -142.4120 246° West 430 495 34,000  Level FlightAware Transoceanic
Wed 10:09:00 PM 27.5129 -142.5347 246° West 430 495 34,000  Level FlightAware Transoceanic
Wed 10:10:00 PM 27.4640 -142.6573 246° West 430 495 34,000  Level FlightAware Transoceanic
Wed 10:11:00 PM 27.4149 -142.7799 246° West 430 495 34,000  Level FlightAware Transoceanic
Wed 10:12:00 PM 27.3658 -142.9023 246° West 430 495 34,000  Level FlightAware Transoceanic
Wed 10:13:00 PM 27.3166 -143.0246 246° West 430 495 34,000  Level FlightAware Transoceanic
Wed 10:14:00 PM 27.2672 -143.1468 246° West 430 495 34,000  Level FlightAware Transoceanic
Wed 10:15:00 PM 27.2178 -143.2689 245° Southwest 430 495 34,000  Level FlightAware Transoceanic
Wed 10:16:00 PM 27.1682 -143.3908 245° Southwest 430 495 34,000  Level FlightAware Transoceanic
Wed 10:17:00 PM 27.1186 -143.5127 245° Southwest 430 495 34,000  Level FlightAware Transoceanic
Wed 10:18:00 PM 27.0688 -143.6345 245° Southwest 430 495 34,000  Level FlightAware Transoceanic
Wed 10:19:00 PM 27.0189 -143.7561 245° Southwest 430 495 34,000  Level FlightAware Transoceanic
Wed 10:20:00 PM 26.9690 -143.8777 245° Southwest 430 495 34,000  Level FlightAware Transoceanic
Wed 10:21:00 PM 26.9189 -143.9991 245° Southwest 430 495 34,000  Level FlightAware Transoceanic
Wed 10:22:00 PM 26.8687 -144.1205 245° Southwest 430 495 34,000  Level FlightAware Transoceanic
Wed 10:23:00 PM 26.8184 -144.2417 245° Southwest 430 495 34,000  Level FlightAware Transoceanic
Wed 10:24:00 PM 26.7680 -144.3628 245° Southwest 430 495 34,000  Level FlightAware Transoceanic
Wed 10:25:00 PM 26.7175 -144.4838 245° Southwest 430 495 34,000  Level FlightAware Transoceanic
Wed 10:26:00 PM 26.6669 -144.6047 245° Southwest 430 495 34,000  Level FlightAware Transoceanic
Wed 10:27:00 PM 26.6162 -144.7255 245° Southwest 430 495 34,000  Level FlightAware Transoceanic
Wed 10:28:00 PM 26.5654 -144.8462 245° Southwest 430 495 34,000  Level FlightAware Transoceanic
Wed 10:29:00 PM 26.5145 -144.9668 245° Southwest 430 495 34,000  Level FlightAware Transoceanic
Wed 10:30:00 PM 26.4635 -145.0872 245° Southwest 430 495 34,000  Level FlightAware Transoceanic
Wed 10:31:00 PM 26.4124 -145.2076 245° Southwest 430 495 34,000  Level FlightAware Transoceanic
Wed 10:32:00 PM 26.3612 -145.3278 245° Southwest 430 495 34,000  Level FlightAware Transoceanic
Wed 10:33:00 PM 26.3099 -145.4480 244° Southwest 430 495 34,000  Level FlightAware Transoceanic
Wed 10:34:00 PM 26.2585 -145.5680 244° Southwest 430 495 34,000  Level FlightAware Transoceanic
Wed 10:35:00 PM 26.2070 -145.6880 244° Southwest 430 495 34,000  Level FlightAware Transoceanic
Wed 10:36:00 PM 26.1554 -145.8078 244° Southwest 430 495 34,000  Level FlightAware Transoceanic
Wed 10:37:00 PM 26.1037 -145.9275 244° Southwest 430 495 34,000  Level FlightAware Transoceanic
Wed 10:38:00 PM 26.0519 -146.0471 244° Southwest 430 495 34,000  Level FlightAware Transoceanic
Wed 10:39:00 PM 26.0000 -146.1667 244° Southwest 430 495 34,000  Level FlightAware Transoceanic
Wed 10:40:00 PM 25.9482 -146.2861 244° Southwest 430 495 34,000  Level FlightAware Transoceanic
Wed 10:41:00 PM 25.8964 -146.4054 244° Southwest 430 495 34,000  Level FlightAware Transoceanic
Wed 10:42:00 PM 25.8445 -146.5246 244° Southwest 430 495 34,000  Level FlightAware Transoceanic
Wed 10:42:41 PM 26.0000 -146.1667 244° Southwest 428 493 34,000  Level Oakland Oceanic (ODAPS)
Wed 10:43:00 PM 25.7924 -146.6438 244° Southwest 430 495 34,000  Level FlightAware Transoceanic
Wed 10:44:00 PM 25.7403 -146.7628 244° Southwest 430 495 34,000  Level FlightAware Transoceanic
Wed 10:45:00 PM 25.6881 -146.8817 244° Southwest 430 495 34,000  Level FlightAware Transoceanic
Wed 10:46:00 PM 25.6357 -147.0005 244° Southwest 430 495 34,000  Level FlightAware Transoceanic
Wed 10:47:00 PM 25.5833 -147.1192 244° Southwest 430 495 34,000  Level FlightAware Transoceanic
Wed 10:48:00 PM 25.5308 -147.2377 244° Southwest 430 495 34,000  Level FlightAware Transoceanic
Wed 10:49:00 PM 25.5308 -147.2377 244° Southwest 428 493 34,000  Level FlightAware Transoceanic
Wed 10:50:00 PM 25.4782 -147.3562 244° Southwest 428 493 34,000  Level FlightAware Transoceanic
Wed 10:51:00 PM 25.4255 -147.4746 244° Southwest 428 493 34,000  Level FlightAware Transoceanic
Wed 10:52:00 PM 25.3727 -147.5929 244° Southwest 428 493 34,000  Level FlightAware Transoceanic
Wed 10:53:00 PM 25.3197 -147.7111 244° Southwest 428 493 34,000  Level FlightAware Transoceanic
Wed 10:54:00 PM 25.2668 -147.8292 244° Southwest 428 493 34,000  Level FlightAware Transoceanic
Wed 10:55:00 PM 25.2137 -147.9471 244° Southwest 428 493 34,000  Level FlightAware Transoceanic
Wed 10:56:00 PM 25.1605 -148.0650 243° Southwest 428 493 34,000  Level FlightAware Transoceanic
Wed 10:57:00 PM 25.1072 -148.1828 243° Southwest 428 493 34,000  Level FlightAware Transoceanic
Wed 10:58:00 PM 25.0538 -148.3004 243° Southwest 428 493 34,000  Level FlightAware Transoceanic
Wed 10:59:00 PM 25.0004 -148.4180 243° Southwest 428 493 34,000  Level FlightAware Transoceanic
Wed 11:00:00 PM 24.9468 -148.5354 243° Southwest 428 493 34,000  Level FlightAware Transoceanic
Wed 11:01:00 PM 24.8932 -148.6528 243° Southwest 428 493 34,000  Level FlightAware Transoceanic
Wed 11:02:00 PM 24.8395 -148.7701 243° Southwest 428 493 34,000  Level FlightAware Transoceanic
Wed 11:03:00 PM 24.7856 -148.8872 243° Southwest 428 493 34,000  Level FlightAware Transoceanic
Wed 11:04:00 PM 24.7317 -149.0043 243° Southwest 428 493 34,000  Level FlightAware Transoceanic
Wed 11:05:00 PM 24.6777 -149.1212 243° Southwest 428 493 34,000  Level FlightAware Transoceanic
Wed 11:06:00 PM 24.6236 -149.2381 243° Southwest 428 493 34,000  Level FlightAware Transoceanic
Wed 11:07:00 PM 24.5694 -149.3548 243° Southwest 428 493 34,000  Level FlightAware Transoceanic
Wed 11:08:00 PM 24.5151 -149.4714 243° Southwest 428 493 34,000  Level FlightAware Transoceanic
Wed 11:09:00 PM 24.4608 -149.5880 243° Southwest 428 493 34,000  Level FlightAware Transoceanic
Wed 11:10:00 PM 24.4063 -149.7044 243° Southwest 428 493 34,000  Level FlightAware Transoceanic
Wed 11:11:00 PM 24.3517 -149.8208 243° Southwest 428 493 34,000  Level FlightAware Transoceanic
Wed 11:12:00 PM 24.2971 -149.9370 243° Southwest 428 493 34,000  Level FlightAware Transoceanic
Wed 11:13:00 PM 24.2424 -150.0531 243° Southwest 428 493 34,000  Level FlightAware Transoceanic
Wed 11:14:00 PM 24.1876 -150.1692 243° Southwest 428 493 34,000  Level FlightAware Transoceanic
Wed 11:15:00 PM 24.1327 -150.2851 243° Southwest 428 493 34,000  Level FlightAware Transoceanic
Wed 11:16:00 PM 24.0777 -150.4010 243° Southwest 428 493 34,000  Level FlightAware Transoceanic
Wed 11:17:00 PM 24.0226 -150.5167 242° Southwest 428 493 34,000  Level FlightAware Transoceanic
Wed 11:18:00 PM 23.9674 -150.6324 242° Southwest 428 493 34,000  Level FlightAware Transoceanic
Wed 11:19:00 PM 23.9122 -150.7479 242° Southwest 428 493 34,000  Level FlightAware Transoceanic
Wed 11:20:00 PM 23.8568 -150.8634 242° Southwest 428 493 34,000  Level FlightAware Transoceanic
Wed 11:21:00 PM 23.8014 -150.9787 242° Southwest 428 493 34,000  Level FlightAware Transoceanic
Wed 11:22:00 PM 23.7459 -151.0940 242° Southwest 428 493 34,000  Level FlightAware Transoceanic
Wed 11:23:00 PM 23.6903 -151.2091 242° Southwest 428 493 34,000  Level FlightAware Transoceanic
Wed 11:24:00 PM 23.6346 -151.3242 242° Southwest 428 493 34,000  Level FlightAware Transoceanic
Wed 11:25:00 PM 23.5789 -151.4391 242° Southwest 428 493 34,000  Level FlightAware Transoceanic
Wed 11:26:00 PM 23.5230 -151.5540 242° Southwest 428 493 34,000  Level FlightAware Transoceanic
Wed 11:27:00 PM 23.4671 -151.6687 242° Southwest 428 493 34,000  Level FlightAware Transoceanic
Wed 11:28:00 PM 23.4111 -151.7834 242° Southwest 428 493 34,000  Level FlightAware Transoceanic
Wed 11:29:00 PM 23.3550 -151.8980 242° Southwest 428 493 34,000  Level FlightAware Transoceanic
Wed 11:30:00 PM 23.2988 -152.0124 242° Southwest 428 493 34,000  Level FlightAware Transoceanic
Wed 11:31:00 PM 23.2425 -152.1268 242° Southwest 428 493 34,000  Level FlightAware Transoceanic
Wed 11:32:00 PM 23.1862 -152.2411 242° Southwest 428 493 34,000  Level FlightAware Transoceanic
Wed 11:33:00 PM 23.1298 -152.3553 242° Southwest 428 493 34,000  Level FlightAware Transoceanic
Wed 11:34:00 PM 23.0733 -152.4693 242° Southwest 428 493 34,000  Level FlightAware Transoceanic
Wed 11:35:00 PM 23.0167 -152.5833 242° Southwest 428 493 34,000  Level FlightAware Transoceanic
Wed 11:36:00 PM 22.9629 -152.6921 242° Southwest 428 493 34,000  Level FlightAware Transoceanic
Wed 11:37:00 PM 22.9091 -152.8009 242° Southwest 428 493 34,000  Level FlightAware Transoceanic
Wed 11:37:27 PM 22.9833 -152.6333 242° Southwest 420 483 34,000  Level Honolulu Center
Wed 11:38:00 PM 22.8552 -152.9095 242° Southwest 428 493 34,000  Level FlightAware Transoceanic
Wed 11:38:28 PM 22.9333 -152.7500 245° Southwest 420 483 34,000  Level Honolulu Center
Wed 11:39:00 PM 22.8012 -153.0180 242° Southwest 428 493 34,000  Level FlightAware Transoceanic
Wed 11:39:28 PM 22.8667 -152.8667 238° Southwest 430 495 34,000  Level Honolulu Center
Wed 11:40:00 PM 22.7471 -153.1265 242° Southwest 428 493 34,000  Level FlightAware Transoceanic
Wed 11:40:28 PM 22.8333 -152.9833 253° West 410 472 34,000  Level Honolulu Center
Wed 11:41:00 PM 22.6930 -153.2349 242° Southwest 428 493 34,000  Level FlightAware Transoceanic
Wed 11:41:29 PM 22.8167 -153.1167 262° West 420 483 34,000  Level Honolulu Center
Wed 11:42:00 PM 22.6388 -153.3432 242° Southwest 428 493 34,000  Level FlightAware Transoceanic
Wed 11:42:29 PM 22.8000 -153.2500 262° West 430 495 34,000  Level Honolulu Center
Wed 11:43:29 PM 22.7833 -153.3833 262° West 430 495 34,000  Level Honolulu Center
Wed 11:44:30 PM 22.7667 -153.5000 261° West 430 495 34,000  Level Honolulu Center
Wed 11:45:30 PM 22.7500 -153.6333 262° West 430 495 34,000  Level Honolulu Center
Wed 11:46:30 PM 22.7333 -153.7667 262° West 430 495 34,000  Level Honolulu Center
Wed 11:47:31 PM 22.7167 -153.8833 261° West 430 495 34,000  Level Honolulu Center
Wed 11:48:31 PM 22.6833 -154.0167 255° West 430 495 34,000  Level Honolulu Center
Wed 11:49:32 PM 22.6667 -154.1500 262° West 440 506 34,000  Level Honolulu Center
Wed 11:50:32 PM 22.6500 -154.2667 261° West 430 495 34,000  Level Honolulu Center
Wed 11:51:32 PM 22.6333 -154.4000 262° West 430 495 34,000  Level Honolulu Center
Wed 11:52:33 PM 22.6000 -154.5333 255° West 440 506 34,000  Level Honolulu Center
Wed 11:53:33 PM 22.5833 -154.6500 261° West 430 495 34,000  Level Honolulu Center
Wed 11:54:33 PM 22.5667 -154.7833 262° West 420 483 34,000 -496 Level Honolulu Center
Wed 11:55:34 PM 22.5333 -154.9000 253° West 410 472 33,000 -1,785 Descending Honolulu Center
Wed 11:56:34 PM 22.5167 -155.0333 262° West 420 483 30,400 -1,488 Descending Honolulu Center
Wed 11:57:35 PM 22.5000 -155.1500 261° West 430 495 30,000 -198 Descending Honolulu Center
Wed 11:58:35 PM 22.4667 -155.2833 255° West 430 495 30,000  Level Honolulu Center
Wed 11:59:35 PM 22.4500 -155.4167 262° West 430 495 30,000  Level Honolulu Center
Thu 12:00:36 AM 22.4167 -155.5667 257° West 430 495 30,000  Level Honolulu Center
Thu 12:01:36 AM 22.4000 -155.6833 261° West 430 495 30,000  Level Honolulu Center
Thu 12:02:36 AM 22.3833 -155.8167 262° West 430 495 30,000  Level Honolulu Center
Thu 12:03:37 AM 22.3500 -155.9500 255° West 440 506 30,000  Level Honolulu Center
Thu 12:04:37 AM 22.3333 -156.0667 261° West 430 495 30,000  Level Honolulu Center
Thu 12:10:10 AM 22.1960 -156.8060 261° West 437 503 30,000  Level FlightAware ADS-B
Thu 12:10:53 AM 22.1810 -156.8860 259° West 437 503 30,000  Level FlightAware ADS-B
Thu 12:11:34 AM 22.1670 -156.9610 259° West 437 503 30,000  Level FlightAware ADS-B
Thu 12:12:28 AM 22.1410 -157.0970 258° West 437 503 30,000  Level FlightAware ADS-B
Thu 12:13:23 AM 22.1200 -157.2070 258° West 438 504 30,000  Level FlightAware ADS-B
Thu 12:14:03 AM 22.1070 -157.2800 259° West 438 504 30,000  Level FlightAware ADS-B
Thu 12:14:52 AM 22.0820 -157.4070 258° West 437 503 30,000  Level FlightAware ADS-B
Thu 12:15:43 AM 22.0630 -157.5090 259° West 435 501 30,000  Level FlightAware ADS-B
Thu 12:16:39 AM 22.0410 -157.6170 258° West 431 496 30,000  Level FlightAware ADS-B
Thu 12:17:26 AM 22.0190 -157.7360 259° West 435 501 30,000  Level FlightAware ADS-B
Thu 12:18:08 AM 22.0020 -157.8220 258° West 435 501 30,000 -786 Level FlightAware ADS-B
Thu 12:18:50 AM 21.9850 -157.9120 259° West 447 514 28,900 -1,846 Descending FlightAware ADS-B
Thu 12:19:39 AM 21.9640 -158.0210 258° West 451 519 27,200 -1,486 Descending FlightAware ADS-B
Thu 12:20:39 AM 21.9410 -158.1360 258° West 451 519 26,200 -2,337 Descending FlightAware ADS-B
Thu 12:21:14 AM 21.9250 -158.2210 259° West 415 478 23,500 -3,353 Descending FlightAware ADS-B
Thu 12:22:21 AM 21.8990 -158.3530 258° West 401 461 20,500 -2,586 Descending FlightAware ADS-B
Thu 12:23:10 AM 21.8820 -158.4420 258° West 396 456 18,500 -2,545 Descending FlightAware ADS-B
Thu 12:24:00 AM 21.8620 -158.5430 258° West 370 426 16,300 -2,133 Descending FlightAware ADS-B
Thu 12:24:40 AM 21.8500 -158.6100 259° West 326 375 15,300 -1,200 Descending FlightAware ADS-B
Thu 12:25:20 AM 21.8380 -158.6710 258° West 304 350 14,700 -1,341 Descending FlightAware ADS-B
Thu 12:26:05 AM 21.8250 -158.7390 258° West 298 343 13,400 -1,103 Descending FlightAware ADS-B
Thu 12:26:47 AM 21.8160 -158.7870 259° West 296 341 13,100 -231 Descending FlightAware ADS-B
Thu 12:27:23 AM 21.8080 -158.8310 259° West 296 341 13,100  Level FlightAware ADS-B
Thu 12:28:12 AM 21.7970 -158.8920 259° West 296 341 13,100 -2,964 Level FlightAware ADS-B
Thu 12:28:46 AM 21.7833 -158.9500 259° West 280 322 9,000 -3,702 Descending Honolulu Center
Thu 12:29:46 AM 21.7667 -159.0333 258° West 280 322 7,300 -1,686 Descending Honolulu Center
Thu 12:30:47 AM 21.7500 -159.1167 258° West 290 334 5,600 -1,587 Descending Honolulu Center
Thu 12:31:47 AM 21.7333 -159.2000 258° West 280 322 4,100 -1,500 Descending Honolulu Center

Login

Don't have an account? Register now (free) for customized features, flight alerts, and more!